Time;durP1;ratioP1;P1;durP2;ratioP2;P2;SDS_P1;SDS_P2;PMS_P1;PMS_P2;Temp;Humidity;BMP_temperature;BMP_pressure;BME280_temperature;BME280_humidity;BME280_pressure;Samples;Min_cycle;Max_cycle;Signal;HPM_P1;HPM_P2
2024/04/24 00:01:23;;;;;;;12.40;10.05;;;9.90;79.40;;;;;;5329150;26;112301;-57
2024/04/24 00:03:48;;;;;;;12.00;11.02;;;9.80;78.40;;;;;;5330928;26;110835;-57
2024/04/24 00:06:15;;;;;;;11.55;10.52;;;9.70;79.60;;;;;;5331736;26;110382;-57
2024/04/24 00:08:40;;;;;;;12.75;11.65;;;9.90;80.00;;;;;;5332092;26;110535;-57
2024/04/24 00:11:06;;;;;;;13.93;12.43;;;9.90;80.30;;;;;;5331161;26;111068;-57
2024/04/24 00:13:32;;;;;;;13.20;11.90;;;9.90;80.70;;;;;;5330709;26;111938;-57
2024/04/24 00:15:57;;;;;;;13.77;12.60;;;9.80;81.00;;;;;;5331952;26;110419;-58
2024/04/24 00:18:23;;;;;;;13.25;12.15;;;9.70;81.10;;;;;;5331462;26;110728;-61
2024/04/24 00:20:49;;;;;;;13.10;12.00;;;9.60;82.00;;;;;;5330730;26;112345;-57
2024/04/24 00:23:15;;;;;;;13.10;11.93;;;9.60;81.60;;;;;;5330652;26;112132;-57
2024/04/24 00:25:41;;;;;;;14.13;12.82;;;9.60;81.00;;;;;;5331738;26;110713;-57
2024/04/24 00:28:06;;;;;;;15.02;13.77;;;9.60;81.30;;;;;;5331772;26;110626;-56
2024/04/24 00:30:32;;;;;;;14.73;13.40;;;9.60;82.10;;;;;;5331090;26;112437;-58
2024/04/24 00:32:58;;;;;;;14.18;12.85;;;9.50;82.10;;;;;;5330696;26;111623;-57
2024/04/24 00:35:23;;;;;;;14.73;13.43;;;9.40;82.30;;;;;;5331636;26;110399;-57
2024/04/24 00:37:49;;;;;;;14.73;13.43;;;9.40;82.60;;;;;;5331725;26;111190;-57
2024/04/24 00:40:15;;;;;;;15.82;14.32;;;9.50;82.80;;;;;;5330352;26;111041;-57
2024/04/24 00:42:40;;;;;;;15.27;13.93;;;9.40;82.70;;;;;;5330447;26;110786;-57
2024/04/24 00:45:06;;;;;;;14.10;12.73;;;9.30;83.30;;;;;;5331636;26;110938;-57
2024/04/24 00:47:33;;;;;;;15.38;13.82;;;9.40;83.30;;;;;;5331609;26;113794;-57
2024/04/24 00:50:00;;;;;;;15.70;14.30;;;9.40;83.20;;;;;;5330583;26;111154;-57
2024/04/24 00:52:27;;;;;;;14.38;13.07;;;9.50;83.20;;;;;;5330293;26;110785;-57
2024/04/24 00:54:53;;;;;;;14.63;13.32;;;9.50;82.50;;;;;;5331572;26;110575;-57
2024/04/24 00:57:19;;;;;;;14.02;12.85;;;9.50;82.50;;;;;;5329776;26;112846;-58
2024/04/24 00:59:45;;;;;;;14.82;13.52;;;9.60;83.10;;;;;;5330807;26;110954;-57
2024/04/24 01:02:10;;;;;;;14.98;13.68;;;9.50;82.40;;;;;;5329967;26;110589;-56
2024/04/24 01:04:36;;;;;;;15.18;13.88;;;9.40;83.00;;;;;;5331501;26;110417;-57
2024/04/24 01:07:02;;;;;;;16.02;14.35;;;9.40;83.20;;;;;;5331205;26;110627;-57
2024/04/24 01:09:28;;;;;;;16.63;15.13;;;9.50;83.30;;;;;;5330340;26;111495;-57
2024/04/24 01:11:54;;;;;;;15.32;14.02;;;9.60;83.80;;;;;;5330119;26;110410;-58
2024/04/24 01:14:19;;;;;;;15.40;13.90;;;9.60;83.60;;;;;;5330211;26;110603;-58
2024/04/24 01:16:47;;;;;;;14.73;13.43;;;9.60;82.90;;;;;;5331595;26;111215;-57
2024/04/24 01:19:41;;;;;;;15.57;14.18;;;9.60;83.00;;;;;;5330240;26;112333;-57
2024/04/24 01:22:48;;;;;;;15.05;13.73;;;9.60;83.50;;;;;;5330161;26;110861;-57
2024/04/24 01:25:38;;;;;;;14.93;13.55;;;9.60;83.90;;;;;;5331063;26;110490;-57
2024/04/24 01:28:04;;;;;;;16.95;12.88;;;9.60;83.70;;;;;;5331168;26;110675;-58
2024/04/24 01:30:30;;;;;;;13.98;12.77;;;9.60;83.30;;;;;;5328454;26;114469;-58
2024/04/24 01:32:56;;;;;;;13.15;11.95;;;9.60;83.50;;;;;;5329903;26;111822;-57
2024/04/24 01:35:21;;;;;;;13.27;12.00;;;9.60;83.30;;;;;;5330895;26;110837;-57
2024/04/24 01:37:47;;;;;;;12.05;11.00;;;9.70;83.60;;;;;;5331024;26;110787;-57
2024/04/24 01:40:13;;;;;;;12.02;10.95;;;9.70;82.90;;;;;;5329961;26;112424;-57
2024/04/24 01:42:38;;;;;;;11.05;10.15;;;9.60;82.50;;;;;;5329877;26;110756;-57
2024/04/24 01:45:04;;;;;;;11.50;10.43;;;9.60;82.50;;;;;;5330874;26;110657;-57
2024/04/24 01:47:30;;;;;;;11.40;10.40;;;9.60;82.70;;;;;;5330845;26;110793;-57
2024/04/24 01:49:55;;;;;;;11.10;10.10;;;9.60;82.60;;;;;;5329901;26;111130;-57
2024/04/24 01:52:21;;;;;;;12.05;10.85;;;9.60;82.20;;;;;;5329905;26;111588;-57
2024/04/24 01:54:47;;;;;;;11.82;10.73;;;9.60;82.50;;;;;;5330694;26;110757;-57
2024/04/24 01:57:12;;;;;;;11.35;10.25;;;9.50;82.10;;;;;;5328755;26;110856;-57
2024/04/24 01:59:38;;;;;;;11.05;10.10;;;9.50;82.30;;;;;;5329539;26;112289;-57
2024/04/24 02:02:04;;;;;;;10.65;9.70;;;9.60;82.00;;;;;;5329664;26;112795;-57
2024/04/24 02:04:29;;;;;;;10.30;9.50;;;9.50;81.70;;;;;;5330936;26;110335;-57
2024/04/24 02:06:55;;;;;;;11.05;9.98;;;9.50;81.90;;;;;;5331597;26;111081;-57
2024/04/24 02:09:21;;;;;;;10.90;9.80;;;9.60;81.50;;;;;;5329542;26;112797;-58
2024/04/24 02:11:47;;;;;;;10.07;9.05;;;9.50;81.80;;;;;;5330039;26;110517;-57
2024/04/24 02:14:12;;;;;;;10.85;9.85;;;9.60;80.70;;;;;;5331215;26;110556;-58
2024/04/24 02:16:38;;;;;;;10.38;9.38;;;9.60;80.70;;;;;;5331107;26;110520;-57
2024/04/24 02:19:03;;;;;;;10.23;9.43;;;9.60;81.10;;;;;;5330055;26;111080;-57
2024/04/24 02:21:29;;;;;;;10.05;9.20;;;9.60;81.20;;;;;;5329582;26;111620;-57
2024/04/24 02:23:55;;;;;;;9.48;8.57;;;9.60;80.80;;;;;;5330921;26;110872;-57
2024/04/24 02:26:20;;;;;;;9.60;8.73;;;9.60;80.90;;;;;;5333303;26;110521;-57
2024/04/24 02:28:46;;;;;;;8.73;7.82;;;9.60;80.60;;;;;;5332301;26;111059;-57
2024/04/24 02:31:12;;;;;;;9.70;8.80;;;9.70;80.30;;;;;;5333211;26;110668;-57
2024/04/24 02:33:39;;;;;;;9.20;8.30;;;9.70;80.50;;;;;;5333385;26;110448;-58
2024/04/24 02:36:05;;;;;;;10.02;9.18;;;9.60;80.40;;;;;;5326378;26;110646;-57
2024/04/24 02:38:31;;;;;;;9.00;8.18;;;9.60;80.50;;;;;;5302640;26;111365;-57
2024/04/24 02:40:56;;;;;;;9.40;8.48;;;9.60;80.30;;;;;;5332416;26;110537;-57
2024/04/24 02:43:22;;;;;;;9.30;8.50;;;9.60;80.70;;;;;;5333360;26;110593;-57
2024/04/24 02:45:47;;;;;;;9.05;8.32;;;9.60;81.10;;;;;;5333060;26;110585;-58
2024/04/24 02:48:13;;;;;;;9.05;8.35;;;9.60;81.00;;;;;;5332442;26;111055;-57
2024/04/24 02:50:39;;;;;;;9.35;8.55;;;9.50;81.60;;;;;;5331985;26;110788;-57
2024/04/24 02:53:05;;;;;;;9.00;8.27;;;9.50;81.90;;;;;;5331743;26;110824;-57
2024/04/24 02:55:30;;;;;;;8.07;7.28;;;9.50;81.60;;;;;;5329946;26;110556;-58
2024/04/24 02:57:56;;;;;;;7.15;6.53;;;9.60;80.80;;;;;;5332276;26;112389;-57
2024/04/24 03:00:22;;;;;;;6.25;5.40;;;9.60;80.40;;;;;;5332227;26;110751;-57
2024/04/24 03:02:47;;;;;;;5.97;5.18;;;9.60;80.50;;;;;;5333154;26;110780;-57
2024/04/24 03:05:13;;;;;;;6.25;5.65;;;9.60;80.30;;;;;;5333105;26;110547;-57
2024/04/24 03:07:39;;;;;;;6.22;5.55;;;9.60;80.90;;;;;;5332394;26;110969;-57
2024/04/24 03:10:05;;;;;;;6.10;5.50;;;9.40;81.20;;;;;;5331635;26;111863;-57
2024/04/24 03:12:30;;;;;;;6.85;6.13;;;9.40;82.20;;;;;;5333148;26;110777;-57
2024/04/24 03:14:56;;;;;;;7.25;6.03;;;9.30;82.70;;;;;;5333236;26;110507;-57
2024/04/24 03:17:22;;;;;;;6.43;5.88;;;9.40;82.60;;;;;;5332151;26;112345;-58
2024/04/24 03:19:47;;;;;;;7.38;6.68;;;9.40;82.70;;;;;;5332049;26;111006;-58
2024/04/24 03:22:13;;;;;;;6.85;6.25;;;9.40;83.00;;;;;;5333155;26;110690;-57
2024/04/24 03:24:39;;;;;;;8.18;7.15;;;9.30;83.10;;;;;;5333326;26;110563;-57
2024/04/24 03:27:05;;;;;;;6.65;6.03;;;9.40;83.50;;;;;;5332072;26;112668;-57
2024/04/24 03:29:30;;;;;;;7.22;6.53;;;9.30;83.70;;;;;;5332354;26;110524;-57
2024/04/24 03:31:56;;;;;;;7.40;6.70;;;9.20;83.90;;;;;;5332662;26;110504;-57
2024/04/24 03:34:22;;;;;;;7.05;6.35;;;9.30;83.70;;;;;;5332954;26;110738;-57
2024/04/24 03:36:48;;;;;;;7.53;6.82;;;9.20;83.40;;;;;;5331292;26;112317;-57
2024/04/24 03:39:14;;;;;;;6.70;6.10;;;9.30;83.50;;;;;;5331915;26;112079;-57
2024/04/24 03:41:40;;;;;;;7.15;6.45;;;9.20;83.30;;;;;;5332948;26;110777;-57
2024/04/24 03:44:05;;;;;;;7.10;6.50;;;9.30;83.70;;;;;;5331351;26;110609;-57
2024/04/24 03:46:31;;;;;;;10.07;7.00;;;9.20;83.40;;;;;;5331892;26;112170;-57
2024/04/24 03:48:57;;;;;;;7.82;7.13;;;9.30;84.00;;;;;;5331552;26;111570;-58
2024/04/24 03:51:23;;;;;;;6.70;6.10;;;9.10;84.10;;;;;;5333014;26;110506;-57
2024/04/24 03:53:49;;;;;;;7.25;6.60;;;9.20;84.00;;;;;;5332836;26;110615;-57
2024/04/24 03:56:15;;;;;;;6.97;6.15;;;9.20;84.00;;;;;;5331771;26;112361;-57
2024/04/24 03:58:40;;;;;;;7.38;6.68;;;9.20;83.90;;;;;;5331546;26;111578;-57
2024/04/24 04:01:06;;;;;;;6.93;6.05;;;9.30;83.60;;;;;;5332505;26;110866;-58
2024/04/24 04:03:32;;;;;;;7.03;6.35;;;9.20;83.70;;;;;;5332863;26;110750;-57
2024/04/24 04:05:58;;;;;;;6.97;6.38;;;9.20;83.90;;;;;;5331549;26;112349;-57
2024/04/24 04:08:24;;;;;;;6.32;5.65;;;9.20;83.80;;;;;;5331424;26;110810;-57
2024/04/24 04:10:50;;;;;;;6.60;6.00;;;9.30;83.90;;;;;;5332630;26;110595;-57
2024/04/24 04:13:16;;;;;;;6.82;6.13;;;9.30;83.90;;;;;;5332593;26;110642;-58
2024/04/24 04:15:41;;;;;;;7.10;6.40;;;9.30;84.30;;;;;;5331994;26;111003;-57
2024/04/24 04:18:07;;;;;;;7.15;6.38;;;9.20;84.60;;;;;;5331365;26;110647;-57
2024/04/24 04:20:33;;;;;;;7.68;6.70;;;9.20;84.30;;;;;;5332557;26;110775;-58
2024/04/24 04:23:00;;;;;;;7.07;6.40;;;9.10;84.50;;;;;;5332502;26;110780;-58
2024/04/24 04:25:29;;;;;;;6.72;6.05;;;9.20;85.10;;;;;;5331348;26;112369;-57
2024/04/24 04:27:57;;;;;;;7.35;6.65;;;9.20;85.20;;;;;;5331223;26;111542;-57
2024/04/24 04:30:22;;;;;;;8.07;7.28;;;9.20;85.00;;;;;;5332642;26;111112;-56
2024/04/24 04:32:48;;;;;;;8.85;7.93;;;9.20;84.90;;;;;;5332516;26;110616;-57
2024/04/24 04:35:14;;;;;;;6.93;6.22;;;9.30;84.60;;;;;;5331127;26;112357;-57
2024/04/24 04:37:39;;;;;;;6.85;6.15;;;9.20;83.90;;;;;;5331401;26;111656;-57
2024/04/24 04:40:06;;;;;;;6.60;6.00;;;9.20;83.90;;;;;;5332516;26;110455;-57
2024/04/24 04:42:31;;;;;;;7.20;6.60;;;9.10;83.80;;;;;;5332285;26;111157;-57
2024/04/24 04:44:57;;;;;;;7.78;7.03;;;9.20;83.80;;;;;;5331336;26;112403;-57
2024/04/24 04:47:23;;;;;;;7.90;7.20;;;9.30;83.90;;;;;;5329929;26;110769;-58
2024/04/24 04:49:49;;;;;;;8.30;7.50;;;9.20;83.80;;;;;;5331950;26;110753;-57
2024/04/24 04:52:14;;;;;;;8.93;7.95;;;9.20;84.30;;;;;;5332182;26;110668;-58
2024/04/24 04:54:40;;;;;;;8.55;7.75;;;9.30;84.30;;;;;;5331216;26;111474;-57
2024/04/24 04:57:06;;;;;;;8.95;8.15;;;9.30;83.50;;;;;;5331200;26;111627;-58
2024/04/24 04:59:31;;;;;;;9.20;8.38;;;9.30;83.60;;;;;;5331871;26;110489;-57
2024/04/24 05:01:57;;;;;;;8.85;8.05;;;9.30;84.30;;;;;;5332411;26;110865;-57
2024/04/24 05:04:23;;;;;;;9.05;8.25;;;9.30;83.60;;;;;;5320684;26;111133;-57
2024/04/24 05:06:48;;;;;;;9.20;8.30;;;9.40;83.80;;;;;;5330921;26;111652;-57
2024/04/24 05:09:14;;;;;;;9.93;9.02;;;9.40;83.80;;;;;;5331874;26;110358;-57
2024/04/24 05:11:45;;;;;;;9.43;8.10;;;9.30;83.80;;;;;;5330013;26;111016;-57
2024/04/24 05:14:14;;;;;;;11.10;9.20;;;9.30;83.50;;;;;;5330969;26;110951;-57
2024/04/24 05:16:40;;;;;;;8.70;7.85;;;9.40;83.70;;;;;;5330831;26;111173;-57
2024/04/24 05:19:06;;;;;;;9.63;8.60;;;9.40;83.70;;;;;;5331954;26;110369;-58
2024/04/24 05:21:31;;;;;;;9.32;8.43;;;9.40;83.40;;;;;;5332036;26;110807;-58
2024/04/24 05:23:57;;;;;;;9.57;8.63;;;9.40;83.90;;;;;;5330984;26;112520;-57
2024/04/24 05:29:09;;;;;;;10.15;9.18;;;9.50;83.30;;;;;;5331909;26;110519;-57
2024/04/24 05:31:36;;;;;;;9.68;8.50;;;9.40;83.20;;;;;;5332455;26;110625;-57
2024/04/24 05:34:03;;;;;;;10.55;8.63;;;9.40;83.50;;;;;;5330581;26;111093;-57
2024/04/24 05:36:29;;;;;;;10.38;8.75;;;9.40;83.70;;;;;;5330500;26;110789;-57
2024/04/24 05:38:56;;;;;;;10.32;9.20;;;9.40;83.60;;;;;;5331573;26;110778;-57
2024/04/24 05:41:21;;;;;;;9.35;8.55;;;9.50;84.20;;;;;;5331888;26;110500;-57
2024/04/24 05:43:47;;;;;;;10.60;9.60;;;9.40;83.60;;;;;;5328719;26;112327;-57
2024/04/24 05:46:13;;;;;;;9.82;8.98;;;9.40;83.90;;;;;;5330703;26;111935;-57
2024/04/24 05:48:38;;;;;;;9.88;8.98;;;9.40;83.90;;;;;;5331334;26;110708;-57
2024/04/24 05:51:05;;;;;;;11.20;9.25;;;9.40;83.50;;;;;;5331880;26;110544;-57
2024/04/24 05:53:30;;;;;;;10.10;9.10;;;9.40;83.80;;;;;;5330628;26;113111;-57
2024/04/24 05:55:56;;;;;;;10.32;9.32;;;9.40;83.70;;;;;;5330161;26;111027;-57
2024/04/24 05:58:22;;;;;;;9.48;8.68;;;9.60;83.80;;;;;;5331296;26;110785;-57
2024/04/24 06:00:47;;;;;;;9.95;8.98;;;9.60;83.40;;;;;;5330961;26;110747;-57
2024/04/24 06:03:13;;;;;;;9.68;8.80;;;9.60;83.50;;;;;;5330354;26;112485;-58
2024/04/24 06:05:39;;;;;;;8.25;7.45;;;9.60;83.60;;;;;;5330311;26;111578;-57
2024/04/24 06:08:05;;;;;;;8.25;7.45;;;9.70;82.60;;;;;;5330973;26;110750;-57
2024/04/24 06:10:30;;;;;;;7.93;6.80;;;9.70;82.70;;;;;;5331415;26;110857;-56
2024/04/24 06:12:56;;;;;;;8.65;7.75;;;9.70;82.80;;;;;;5329839;26;112537;-57
2024/04/24 06:15:22;;;;;;;8.57;7.70;;;9.60;82.80;;;;;;5330132;26;112860;-57
2024/04/24 06:17:48;;;;;;;7.45;6.78;;;9.70;83.00;;;;;;5331419;26;110718;-57
2024/04/24 06:20:16;;;;;;;6.78;6.18;;;9.70;82.70;;;;;;5331012;26;110567;-57
2024/04/24 06:22:44;;;;;;;6.95;6.35;;;9.70;82.70;;;;;;5330198;26;111033;-58
2024/04/24 06:25:10;;;;;;;7.30;6.55;;;9.70;82.70;;;;;;5328785;26;110949;-57
2024/04/24 06:27:37;;;;;;;7.22;6.60;;;9.70;82.80;;;;;;5330646;26;110559;-59
2024/04/24 06:30:03;;;;;;;7.43;6.68;;;9.80;82.80;;;;;;5331166;26;110758;-57
2024/04/24 06:32:29;;;;;;;8.32;7.50;;;9.70;82.60;;;;;;5329268;26;113205;-57
2024/04/24 06:34:55;;;;;;;7.30;6.70;;;9.70;83.30;;;;;;5329976;26;111904;-57
2024/04/24 06:37:20;;;;;;;5.90;5.40;;;9.70;83.30;;;;;;5330326;26;110500;-56
2024/04/24 06:39:47;;;;;;;7.60;5.47;;;9.80;82.60;;;;;;5330711;26;110947;-58
2024/04/24 06:42:13;;;;;;;5.82;5.30;;;9.80;82.30;;;;;;5329492;26;112806;-57
2024/04/24 06:44:38;;;;;;;4.43;4.03;;;9.80;82.00;;;;;;5329575;26;111605;-58
2024/04/24 06:47:06;;;;;;;4.28;3.95;;;9.80;81.70;;;;;;5330143;26;110900;-57
2024/04/24 06:49:34;;;;;;;3.92;3.30;;;9.90;82.10;;;;;;5330351;26;110618;-57
2024/04/24 06:52:00;;;;;;;3.15;2.95;;;10.00;81.50;;;;;;5329168;26;111048;-57
2024/04/24 06:54:26;;;;;;;3.70;3.25;;;10.10;80.90;;;;;;5329236;26;110334;-57
2024/04/24 06:56:53;;;;;;;3.28;2.97;;;10.10;81.40;;;;;;5329727;26;110613;-57
2024/04/24 06:59:18;;;;;;;3.15;2.95;;;10.20;81.40;;;;;;5330154;26;110487;-57
2024/04/24 07:01:44;;;;;;;3.10;2.90;;;10.30;81.40;;;;;;5328924;26;112343;-57
2024/04/24 07:04:10;;;;;;;4.65;2.95;;;10.30;81.50;;;;;;5329238;26;110935;-57
2024/04/24 07:06:35;;;;;;;3.88;2.65;;;10.30;81.50;;;;;;5325020;26;111030;-57
2024/04/24 07:09:01;;;;;;;3.42;2.80;;;10.30;80.90;;;;;;5330046;26;110483;-57
2024/04/24 07:11:26;;;;;;;3.00;2.70;;;10.50;80.40;;;;;;5329857;26;113270;-57
2024/04/24 07:13:52;;;;;;;4.85;3.40;;;10.60;80.50;;;;;;5331766;26;110387;-57
2024/04/24 07:16:18;;;;;;;3.70;3.40;;;10.60;80.80;;;;;;5329873;26;110641;-57
2024/04/24 07:18:43;;;;;;;4.03;3.00;;;10.70;80.80;;;;;;5312764;26;110684;-57
2024/04/24 07:21:09;;;;;;;3.58;2.80;;;10.70;80.50;;;;;;5331381;26;111100;-57
2024/04/24 07:23:35;;;;;;;3.88;3.35;;;10.70;80.80;;;;;;5331100;26;111929;-57
2024/04/24 07:26:00;;;;;;;5.03;3.30;;;10.80;80.70;;;;;;5327881;26;110713;-57
2024/04/24 07:28:26;;;;;;;4.38;3.30;;;10.80;80.70;;;;;;5332669;26;110573;-58
2024/04/24 07:30:52;;;;;;;3.20;2.90;;;10.90;79.70;;;;;;5331974;26;111154;-57
2024/04/24 07:33:18;;;;;;;2.92;2.70;;;10.90;79.70;;;;;;5331315;26;111069;-57
2024/04/24 07:35:43;;;;;;;3.20;2.90;;;10.80;79.80;;;;;;5327973;26;110991;-57
2024/04/24 07:38:11;;;;;;;2.92;2.60;;;10.80;79.00;;;;;;5332412;26;110677;-57
2024/04/24 07:40:37;;;;;;;3.13;2.75;;;10.80;80.10;;;;;;5331255;26;112903;-57
2024/04/24 07:43:03;;;;;;;3.53;2.95;;;10.80;80.10;;;;;;5331635;26;111092;-57
2024/04/24 07:45:28;;;;;;;2.65;2.35;;;10.70;79.60;;;;;;5330099;26;110436;-57
2024/04/24 07:47:54;;;;;;;2.40;2.20;;;10.80;79.10;;;;;;5325964;26;111717;-56
2024/04/24 07:50:20;;;;;;;2.72;2.40;;;10.70;79.60;;;;;;5331208;26;112706;-57
2024/04/24 07:52:45;;;;;;;3.05;2.75;;;10.70;79.80;;;;;;5331079;26;111491;-57
2024/04/24 07:55:11;;;;;;;2.70;2.50;;;10.80;80.20;;;;;;5332536;26;110383;-57
2024/04/24 07:57:37;;;;;;;2.42;2.33;;;10.70;79.50;;;;;;5332151;26;111010;-57
2024/04/24 08:00:03;;;;;;;2.80;2.40;;;10.70;79.60;;;;;;5326903;26;112209;-56
2024/04/24 08:02:29;;;;;;;2.45;2.20;;;10.60;80.00;;;;;;5326047;26;111605;-57
2024/04/24 08:04:54;;;;;;;4.85;2.45;;;10.40;80.00;;;;;;5327814;26;110857;-58
2024/04/24 08:07:20;;;;;;;4.55;2.63;;;10.40;81.40;;;;;;5327907;26;111011;-58
2024/04/24 08:09:45;;;;;;;3.08;2.53;;;10.40;80.90;;;;;;5331315;26;111105;-57
2024/04/24 08:12:11;;;;;;;3.25;2.10;;;10.60;81.20;;;;;;5330995;26;110864;-57
2024/04/24 08:14:37;;;;;;;2.55;2.35;;;10.50;80.00;;;;;;5329244;26;110783;-57
2024/04/24 08:17:03;;;;;;;2.63;2.42;;;10.60;81.00;;;;;;5310995;26;110601;-57
2024/04/24 08:19:29;;;;;;;3.75;2.28;;;10.80;80.60;;;;;;5331320;26;111193;-57
2024/04/24 08:21:55;;;;;;;2.95;2.65;;;10.90;79.50;;;;;;5329692;26;111723;-56
2024/04/24 08:24:20;;;;;;;3.05;2.72;;;11.00;79.80;;;;;;5331344;26;110388;-57
2024/04/24 08:26:46;;;;;;;2.63;2.40;;;11.10;80.40;;;;;;5331518;26;110669;-57
2024/04/24 08:29:12;;;;;;;2.28;2.08;;;11.10;79.60;;;;;;5331060;26;111107;-57
2024/04/24 08:31:37;;;;;;;2.40;2.10;;;11.30;79.00;;;;;;5321583;26;110428;-57
2024/04/24 08:34:03;;;;;;;2.30;2.10;;;11.40;78.50;;;;;;5307356;26;110976;-57
2024/04/24 08:36:28;;;;;;;2.47;2.28;;;11.30;77.80;;;;;;5309712;26;110650;-57
2024/04/24 08:38:54;;;;;;;3.25;2.35;;;11.30;78.30;;;;;;5320480;26;111146;-57
2024/04/24 08:41:20;;;;;;;1.85;1.73;;;11.40;78.30;;;;;;5309084;26;111755;-57
2024/04/24 08:43:48;;;;;;;1.85;1.60;;;11.40;76.60;;;;;;5300482;26;110639;-57
2024/04/24 08:46:14;;;;;;;1.80;1.50;;;11.40;76.90;;;;;;5317813;26;111355;-56
2024/04/24 08:48:41;;;;;;;1.98;1.55;;;11.50;76.30;;;;;;5320456;26;112281;-57
2024/04/24 08:51:08;;;;;;;2.55;1.40;;;11.60;75.90;;;;;;5306884;26;110623;-57
2024/04/24 08:53:35;;;;;;;1.23;1.13;;;11.80;75.80;;;;;;5297120;26;110769;-57
2024/04/24 08:56:03;;;;;;;1.45;1.35;;;11.90;75.40;;;;;;5321556;26;110743;-57
2024/04/24 08:58:35;;;;;;;1.40;1.30;;;12.00;74.90;;;;;;5315580;26;112354;-57
2024/04/24 09:01:03;;;;;;;1.30;1.20;;;11.90;74.00;;;;;;5306129;26;111575;-57
2024/04/24 09:03:34;;;;;;;1.67;1.58;;;12.00;73.80;;;;;;5325479;26;110866;-57
2024/04/24 09:06:03;;;;;;;1.40;1.30;;;12.10;74.30;;;;;;5332087;26;111091;-56
2024/04/24 09:08:31;;;;;;;1.40;1.30;;;12.10;72.70;;;;;;5329942;26;112409;-57
2024/04/24 09:10:57;;;;;;;1.55;1.33;;;12.10;72.70;;;;;;5328540;26;112603;-57
2024/04/24 09:13:24;;;;;;;1.17;1.08;;;12.10;72.30;;;;;;5306289;26;111494;-57
2024/04/24 09:15:53;;;;;;;1.50;1.33;;;12.10;72.40;;;;;;5318397;26;110564;-57
2024/04/24 09:18:18;;;;;;;1.50;1.40;;;11.90;73.30;;;;;;5324364;26;111230;-57
2024/04/24 09:20:47;;;;;;;1.38;1.30;;;11.90;72.00;;;;;;5310397;26;110777;-57
2024/04/24 09:23:18;;;;;;;1.63;1.52;;;11.80;70.80;;;;;;5328710;26;111049;-57
2024/04/24 09:25:44;;;;;;;3.03;1.50;;;11.70;72.50;;;;;;5331928;26;110629;-57
2024/04/24 09:28:11;;;;;;;1.35;1.17;;;11.60;70.30;;;;;;5327301;26;111610;-57
2024/04/24 09:30:38;;;;;;;1.25;1.15;;;11.70;70.50;;;;;;5327385;26;111538;-57
2024/04/24 09:33:04;;;;;;;1.73;1.10;;;11.60;69.80;;;;;;5331146;26;110608;-57
2024/04/24 09:35:30;;;;;;;1.38;1.27;;;11.70;68.40;;;;;;5330610;26;110856;-57
2024/04/24 09:37:56;;;;;;;0.98;0.85;;;11.80;68.60;;;;;;5326140;26;112418;-57
2024/04/24 09:40:22;;;;;;;0.95;0.95;;;12.00;67.60;;;;;;5326315;26;111032;-57
2024/04/24 09:42:48;;;;;;;1.20;1.10;;;12.10;68.00;;;;;;5310546;26;110429;-57
2024/04/24 09:45:14;;;;;;;0.98;0.82;;;12.10;69.50;;;;;;5331143;26;110692;-57
2024/04/24 09:47:42;;;;;;;0.77;0.77;;;12.10;68.80;;;;;;5305841;26;112688;-57
2024/04/24 09:50:08;;;;;;;1.20;0.82;;;12.30;68.00;;;;;;5330334;26;110507;-57
2024/04/24 09:52:35;;;;;;;1.27;0.98;;;12.30;67.70;;;;;;5330446;26;110828;-58
2024/04/24 09:55:01;;;;;;;1.10;1.00;;;12.30;68.00;;;;;;5331152;26;110474;-57
2024/04/24 09:57:35;;;;;;;0.80;0.80;;;12.60;69.20;;;;;;5329544;26;111018;-57
2024/04/24 10:00:03;;;;;;;1.88;0.98;;;12.30;69.30;;;;;;5312077;26;111445;-58
2024/04/24 10:02:33;;;;;;;0.70;0.70;;;12.50;69.60;;;;;;5328246;26;110770;-57
2024/04/24 10:05:23;;;;;;;0.82;0.65;;;12.50;68.30;;;;;;5321030;26;111163;-57
2024/04/24 10:07:55;;;;;;;0.70;0.70;;;12.30;68.90;;;;;;5329914;26;112315;-57
2024/04/24 10:10:27;;;;;;;1.02;0.93;;;12.30;69.20;;;;;;5295613;26;110762;-57
2024/04/24 10:12:55;;;;;;;2.03;0.80;;;12.20;69.30;;;;;;5296770;26;110472;-57
2024/04/24 10:15:24;;;;;;;1.02;1.00;;;12.40;69.60;;;;;;5313623;26;111460;-57
2024/04/24 10:17:51;;;;;;;1.80;1.70;;;12.40;70.30;;;;;;5329939;26;112420;-57
2024/04/24 10:20:18;;;;;;;2.25;2.00;;;12.40;69.60;;;;;;5329305;26;112552;-57
2024/04/24 10:22:44;;;;;;;2.83;1.40;;;12.10;70.90;;;;;;5317060;26;110557;-57
2024/04/24 10:25:12;;;;;;;1.35;1.20;;;12.10;71.80;;;;;;5324974;26;112077;-57
2024/04/24 10:27:40;;;;;;;3.85;1.50;;;12.10;71.40;;;;;;5329966;26;111668;-57
2024/04/24 10:30:08;;;;;;;1.92;1.77;;;12.20;73.70;;;;;;5328699;26;111913;-56
2024/04/24 10:32:34;;;;;;;2.00;1.50;;;12.10;74.10;;;;;;5328841;26;110724;-57
2024/04/24 10:35:00;;;;;;;2.90;1.60;;;12.10;73.70;;;;;;5330321;26;110490;-57
2024/04/24 10:37:26;;;;;;;2.90;1.67;;;11.90;74.00;;;;;;5329279;26;111019;-58
2024/04/24 10:39:54;;;;;;;1.55;1.42;;;11.90;73.90;;;;;;5329246;26;110785;-58
2024/04/24 10:42:20;;;;;;;1.10;1.00;;;11.90;73.60;;;;;;5329703;26;110567;-56
2024/04/24 10:44:47;;;;;;;2.08;1.70;;;12.00;73.50;;;;;;5330554;26;111124;-58
2024/04/24 10:47:16;;;;;;;2.08;1.40;;;12.20;72.80;;;;;;5330767;26;112324;-58
2024/04/24 10:49:56;;;;;;;2.00;1.10;;;12.40;72.30;;;;;;5332021;26;111706;-58
2024/04/24 10:52:23;;;;;;;0.88;0.88;;;12.40;72.20;;;;;;5307675;26;110574;-57
2024/04/24 10:54:49;;;;;;;1.20;1.10;;;12.30;71.00;;;;;;5327227;26;111049;-57
2024/04/24 10:57:15;;;;;;;1.15;1.05;;;12.60;72.10;;;;;;5331289;26;112554;-57
2024/04/24 10:59:45;;;;;;;2.15;1.00;;;13.00;72.80;;;;;;5326907;26;110994;-58
2024/04/24 11:02:18;;;;;;;1.30;1.20;;;13.20;71.00;;;;;;5331910;26;110624;-57
2024/04/24 11:04:44;;;;;;;1.30;1.10;;;13.40;70.50;;;;;;5312722;26;110624;-59
2024/04/24 11:07:13;;;;;;;1.35;0.82;;;13.90;70.00;;;;;;5325442;26;112339;-57
2024/04/24 11:09:40;;;;;;;1.95;0.90;;;14.40;67.00;;;;;;5331472;26;110943;-56
2024/04/24 11:12:08;;;;;;;1.02;0.77;;;14.80;65.90;;;;;;5308631;26;110804;-57
2024/04/24 11:14:41;;;;;;;0.90;0.90;;;15.00;65.50;;;;;;5302772;26;110923;-57
2024/04/24 11:17:07;;;;;;;0.90;0.90;;;15.00;64.00;;;;;;5300789;26;111766;-57
2024/04/24 11:19:33;;;;;;;1.08;1.00;;;15.00;65.70;;;;;;5299667;26;110845;-57
2024/04/24 11:21:59;;;;;;;3.80;3.30;;;14.70;65.30;;;;;;5314832;26;110654;-57
2024/04/24 11:24:32;;;;;;;5.70;3.70;;;14.30;66.30;;;;;;5308302;26;110750;-57
2024/04/24 11:26:59;;;;;;;1.45;1.00;;;13.90;65.80;;;;;;5321990;26;112357;-57
2024/04/24 11:29:24;;;;;;;1.67;1.30;;;13.90;67.40;;;;;;5324019;26;111463;-57
2024/04/24 11:31:51;;;;;;;1.10;1.00;;;13.90;67.70;;;;;;5323511;26;110662;-57
2024/04/24 11:34:19;;;;;;;0.85;0.85;;;13.90;66.20;;;;;;5320597;26;110531;-57
2024/04/24 11:36:45;;;;;;;0.70;0.70;;;13.90;65.50;;;;;;5321898;26;111452;-57
2024/04/24 11:39:13;;;;;;;1.15;0.80;;;14.20;64.10;;;;;;5325631;26;111492;-57
2024/04/24 11:41:39;;;;;;;2.70;0.80;;;14.30;62.90;;;;;;5326852;26;111942;-57
2024/04/24 11:44:08;;;;;;;0.80;0.80;;;14.70;62.40;;;;;;5324584;26;110966;-57
2024/04/24 11:46:35;;;;;;;0.77;0.77;;;15.20;59.00;;;;;;5315367;26;112461;-57
2024/04/24 11:49:04;;;;;;;0.88;0.70;;;15.70;58.90;;;;;;5318264;26;112322;-57
2024/04/24 11:51:36;;;;;;;0.70;0.70;;;16.40;57.10;;;;;;5319511;26;110509;-57
2024/04/24 11:54:02;;;;;;;0.77;0.70;;;17.00;55.00;;;;;;5319820;26;110645;-57
2024/04/24 11:56:31;;;;;;;1.00;0.70;;;17.10;54.70;;;;;;5330191;26;113033;-58
2024/04/24 11:59:06;;;;;;;1.73;1.10;;;17.40;52.50;;;;;;5318077;26;110773;-57
2024/04/24 12:01:34;;;;;;;1.08;1.00;;;17.60;52.30;;;;;;5316597;26;110466;-57
2024/04/24 12:04:01;;;;;;;0.77;0.77;;;17.90;50.60;;;;;;5317518;26;110722;-57
2024/04/24 12:06:30;;;;;;;1.67;1.10;;;18.10;51.50;;;;;;5324090;26;111123;-58
2024/04/24 12:09:00;;;;;;;0.93;0.93;;;18.70;51.20;;;;;;5302498;26;110897;-57
2024/04/24 12:11:26;;;;;;;1.38;1.20;;;18.40;47.80;;;;;;5323895;26;110510;-58
2024/04/24 12:13:53;;;;;;;1.20;1.10;;;18.20;49.30;;;;;;5305700;26;111221;-58
2024/04/24 12:16:19;;;;;;;1.13;0.90;;;17.80;50.40;;;;;;5315205;26;112516;-58
2024/04/24 12:18:45;;;;;;;0.70;0.70;;;17.90;50.00;;;;;;5321716;26;110906;-57
2024/04/24 12:21:11;;;;;;;0.65;0.65;;;17.90;48.50;;;;;;5327454;26;111208;-57
2024/04/24 12:23:36;;;;;;;1.15;0.80;;;17.80;48.30;;;;;;5331975;26;110682;-57
2024/04/24 12:26:02;;;;;;;1.02;1.00;;;17.10;51.70;;;;;;5315933;26;112356;-58
2024/04/24 12:28:28;;;;;;;0.90;0.90;;;16.80;52.20;;;;;;5312451;26;111211;-58
2024/04/24 12:30:54;;;;;;;1.20;1.10;;;15.90;54.90;;;;;;5331573;26;110934;-57
2024/04/24 12:33:19;;;;;;;1.10;1.00;;;15.40;54.20;;;;;;5332225;26;110638;-57
2024/04/24 12:35:45;;;;;;;2.08;1.00;;;14.90;56.50;;;;;;5315284;26;113675;-57
2024/04/24 12:38:11;;;;;;;1.85;1.20;;;14.70;57.90;;;;;;5331087;26;111508;-57